Time;durP1;ratioP1;P1;durP2;ratioP2;P2;SDS_P1;SDS_P2;PMS_P1;PMS_P2;Temp;Humidity;BMP_temperature;BMP_pressure;BME280_temperature;BME280_humidity;BME280_pressure;Samples;Min_cycle;Max_cycle;Signal;HPM_P1;HPM_P2
2022/06/09 00:02:21;;;;;;;;;7.25;4.50;;;;;13.62;100.00;100485.38;5096521;27;45557;-76
2022/06/09 00:04:46;;;;;;;;;6.75;3.50;;;;;13.51;100.00;100472.75;5099218;27;45398;-76
2022/06/09 00:07:21;;;;;;;;;6.00;4.75;;;;;13.62;100.00;100491.53;5096596;27;45484;-76
2022/06/09 00:09:58;;;;;;;;;5.00;5.00;;;;;13.62;100.00;100490.66;5096551;27;45558;-76
2022/06/09 00:12:25;;;;;;;;;7.50;4.00;;;;;13.61;100.00;100499.53;5097467;27;45584;-77
2022/06/09 00:14:50;;;;;;;;;8.00;6.00;;;;;13.57;100.00;100501.50;5096242;27;46543;-76
2022/06/09 00:17:17;;;;;;;;;7.50;4.50;;;;;13.57;100.00;100507.63;5096043;27;45304;-76
2022/06/09 00:19:44;;;;;;;;;10.00;5.00;;;;;13.57;100.00;100510.28;5095272;27;45415;-75
2022/06/09 00:22:09;;;;;;;;;4.50;3.00;;;;;13.46;100.00;100496.78;5096596;27;45349;-75
2022/06/09 00:24:35;;;;;;;;;6.75;4.50;;;;;13.51;100.00;100515.88;5096559;27;46159;-76
2022/06/09 00:27:00;;;;;;;;;3.75;3.75;;;;;13.53;100.00;100521.94;5094175;27;45398;-76
2022/06/09 00:29:25;;;;;;;;;4.00;4.00;;;;;13.50;100.00;100524.75;5096850;27;45479;-76
2022/06/09 00:31:51;;;;;;;;;6.75;4.50;;;;;13.44;100.00;100510.09;5096610;27;45634;-75
2022/06/09 00:34:16;;;;;;;;;3.25;2.25;;;;;13.48;100.00;100520.50;5095897;27;45517;-75
2022/06/09 00:36:42;;;;;;;;;3.50;3.50;;;;;13.43;100.00;100520.72;5096161;27;45336;-75
2022/06/09 00:39:07;;;;;;;;;6.25;4.00;;;;;13.44;100.00;100535.66;5096160;27;45338;-76
2022/06/09 00:41:38;;;;;;;;;9.00;4.25;;;;;13.42;100.00;100535.75;5094704;27;45570;-74
2022/06/09 00:44:24;;;;;;;;;4.50;3.00;;;;;13.40;100.00;100531.44;5095753;27;46404;-75
2022/06/09 00:47:18;;;;;;;;;4.50;4.50;;;;;13.35;100.00;100528.16;5095830;27;45455;-75
2022/06/09 00:49:56;;;;;;;;;4.00;4.00;;;;;13.37;100.00;100524.53;5094261;27;45279;-76
2022/06/09 00:52:26;;;;;;;;;4.25;4.00;;;;;13.27;100.00;100502.19;5095932;27;45491;-75
2022/06/09 00:54:59;;;;;;;;;3.75;3.00;;;;;13.34;100.00;100514.13;5095740;27;46433;-75
2022/06/09 00:57:34;;;;;;;;;4.00;4.00;;;;;13.34;100.00;100522.06;5095882;27;45307;-76
2022/06/09 01:00:07;;;;;;;;;8.50;4.00;;;;;13.38;100.00;100533.28;5095859;27;45394;-77
2022/06/09 01:02:33;;;;;;;;;1.75;1.75;;;;;13.39;100.00;100535.00;5095575;27;45349;-76
2022/06/09 01:05:03;;;;;;;;;8.25;4.75;;;;;13.36;100.00;100551.88;5094318;27;46976;-76
2022/06/09 01:07:36;;;;;;;;;4.25;3.25;;;;;13.33;100.00;100524.75;5095682;27;45431;-76
2022/06/09 01:10:01;;;;;;;;;3.50;3.00;;;;;13.32;100.00;100533.63;5095367;27;45180;-76
2022/06/09 01:12:40;;;;;;;;;3.00;3.00;;;;;13.34;100.00;100544.97;5095697;27;45559;-76
2022/06/09 01:15:13;;;;;;;;;5.75;4.25;;;;;13.30;100.00;100537.19;5093825;27;47627;-76
2022/06/09 01:17:58;;;;;;;;;7.25;4.50;;;;;13.26;100.00;100538.28;5095201;27;45306;-76
2022/06/09 01:20:24;;;;;;;;;5.25;3.75;;;;;13.27;100.00;100541.81;5093921;27;45315;-76
2022/06/09 01:23:19;;;;;;;;;5.50;3.25;;;;;13.23;100.00;100543.72;5095297;27;45324;-75
2022/06/09 01:25:56;;;;;;;;;8.50;4.75;;;;;13.21;100.00;100550.88;5095419;27;46322;-75
2022/06/09 01:28:53;;;;;;;;;3.00;3.00;;;;;13.18;100.00;100552.81;5095117;27;45334;-75
2022/06/09 01:31:36;;;;;;;;;8.75;4.00;;;;;13.18;100.00;100566.03;5095242;27;45439;-75
2022/06/09 01:34:31;;;;;;;;;5.00;3.25;;;;;13.14;100.00;100566.19;5095419;27;45316;-75
2022/06/09 01:37:03;;;;;;;;;4.00;3.00;;;;;13.13;100.00;100561.00;5093805;27;48345;-76
2022/06/09 01:39:42;;;;;;;;;4.25;3.50;;;;;13.06;100.00;100563.06;5097927;27;45997;-75
2022/06/09 01:42:22;;;;;;;;;5.50;3.75;;;;;13.09;100.00;100567.38;5098629;27;45413;-75
2022/06/09 01:44:50;;;;;;;;;2.00;2.00;;;;;13.04;100.00;100556.19;5098802;27;45242;-76
2022/06/09 01:47:20;;;;;;;;;9.25;5.00;;;;;13.07;100.00;100566.59;5096735;27;46564;-75
2022/06/09 01:49:49;;;;;;;;;4.00;4.00;;;;;13.07;100.00;100563.94;5098658;27;45436;-75
2022/06/09 01:52:15;;;;;;;;;7.00;3.00;;;;;13.04;100.00;100564.94;5098538;27;45407;-75
2022/06/09 01:54:41;;;;;;;;;5.00;4.25;;;;;13.03;100.00;100576.44;5098697;27;45602;-75
2022/06/09 01:57:15;;;;;;;;;5.50;5.00;;;;;13.04;100.00;100570.22;5098393;27;45534;-75
2022/06/09 01:59:50;;;;;;;;;3.50;3.50;;;;;13.04;100.00;100575.50;5098168;27;45371;-75
2022/06/09 02:02:20;;;;;;;;;3.00;3.00;;;;;13.01;100.00;100573.03;5098309;27;45313;-75
2022/06/09 02:04:55;;;;;;;;;8.50;6.25;;;;;13.08;100.00;100587.63;5098634;27;45484;-75
2022/06/09 02:07:21;;;;;;;;;8.00;5.25;;;;;13.06;100.00;100583.38;5098336;27;45481;-75
2022/06/09 02:09:47;;;;;;;;;4.25;4.25;;;;;13.11;100.00;100581.34;5097973;27;45527;-75
2022/06/09 02:12:16;;;;;;;;;8.50;4.25;;;;;13.18;100.00;100589.78;5096757;27;45221;-75
2022/06/09 02:14:47;;;;;;;;;5.25;3.50;;;;;13.15;100.00;100585.53;5098339;27;45433;-74
2022/06/09 02:17:13;;;;;;;;;4.25;4.00;;;;;13.17;100.00;100590.72;5097739;27;46526;-74
2022/06/09 02:19:41;;;;;;;;;6.00;4.00;;;;;13.05;100.00;100577.22;5097975;27;45610;-75
2022/06/09 02:22:09;;;;;;;;;5.00;4.25;;;;;13.20;100.00;100602.00;5098113;27;45332;-76
2022/06/09 02:24:35;;;;;;;;;6.75;3.50;;;;;13.16;100.00;100600.44;5098579;27;45230;-76
2022/06/09 02:27:01;;;;;;;;;5.50;4.00;;;;;13.18;100.00;100598.59;5096659;27;47062;-76
2022/06/09 02:29:27;;;;;;;;;7.75;4.25;;;;;13.20;100.00;100602.00;5097896;27;45260;-76
2022/06/09 02:31:53;;;;;;;;;6.00;6.00;;;;;13.18;100.00;100598.59;5098114;27;45386;-76
2022/06/09 02:34:20;;;;;;;;;5.75;4.25;;;;;13.14;100.00;100597.88;5098018;27;45421;-76
2022/06/09 02:36:45;;;;;;;;;5.50;5.25;;;;;13.09;100.00;100589.31;5097638;27;45433;-76
2022/06/09 02:39:11;;;;;;;;;5.50;3.75;;;;;13.05;100.00;100600.13;5097694;27;45519;-76
2022/06/09 02:41:37;;;;;;;;;5.25;3.75;;;;;12.96;100.00;100586.47;5097869;27;45406;-76
2022/06/09 02:44:03;;;;;;;;;5.00;3.00;;;;;12.95;100.00;100591.81;5096754;27;45539;-76
2022/06/09 02:46:28;;;;;;;;;6.50;5.00;;;;;12.98;100.00;100608.38;5097533;27;47706;-77
2022/06/09 02:48:53;;;;;;;;;7.50;4.50;;;;;12.95;100.00;100600.59;5097212;27;45249;-75
2022/06/09 02:51:22;;;;;;;;;7.25;5.00;;;;;12.94;100.00;100596.25;5098016;27;45230;-76
2022/06/09 02:53:48;;;;;;;;;7.25;4.75;;;;;12.86;100.00;100588.69;5098193;27;45268;-75
2022/06/09 02:56:13;;;;;;;;;9.50;5.00;;;;;12.85;100.00;100599.34;5097739;27;46070;-75
2022/06/09 02:58:39;;;;;;;;;6.00;3.25;;;;;12.84;100.00;100595.84;5098156;27;45976;-77
2022/06/09 03:01:05;;;;;;;;;6.00;4.75;;;;;12.83;100.00;100604.69;5099034;27;45391;-76
2022/06/09 03:03:30;;;;;;;;;5.75;4.75;;;;;12.85;100.00;100609.91;5098108;27;45586;-75
2022/06/09 03:05:55;;;;;;;;;7.50;4.00;;;;;12.85;100.00;100618.66;5097316;27;46393;-76
2022/06/09 03:08:20;;;;;;;;;5.00;3.25;;;;;12.74;100.00;100599.88;5097595;27;45344;-75
2022/06/09 03:10:46;;;;;;;;;4.75;4.00;;;;;12.85;100.00;100623.09;5096143;27;45336;-74
2022/06/09 03:13:11;;;;;;;;;4.50;4.00;;;;;12.70;100.00;100588.59;5097643;27;45363;-74
2022/06/09 03:15:37;;;;;;;;;6.00;4.25;;;;;12.79;100.00;100604.94;5097423;27;46401;-73
2022/06/09 03:18:03;;;;;;;;;6.50;4.25;;;;;12.78;100.00;100604.06;5097841;27;45329;-76
2022/06/09 03:20:31;;;;;;;;;4.00;3.25;;;;;12.79;100.00;100608.41;5097475;27;45365;-75
2022/06/09 03:22:57;;;;;;;;;5.50;2.75;;;;;12.76;100.00;100605.09;5097719;27;45364;-74
2022/06/09 03:25:23;;;;;;;;;5.50;5.00;;;;;12.76;100.00;100603.28;5095786;27;46819;-75
2022/06/09 03:27:49;;;;;;;;;4.00;4.00;;;;;12.75;100.00;100619.22;5097396;27;45547;-75
2022/06/09 03:30:16;;;;;;;;;4.00;4.00;;;;;12.73;100.00;100608.72;5097103;27;45376;-75
2022/06/09 03:32:41;;;;;;;;;6.00;4.75;;;;;12.69;100.00;100610.63;5097554;27;45511;-75
2022/06/09 03:35:08;;;;;;;;;7.00;6.00;;;;;12.71;100.00;100614.06;5097457;27;46203;-74
2022/06/09 03:37:34;;;;;;;;;5.50;4.00;;;;;12.74;100.00;100622.78;5097454;27;45442;-75
2022/06/09 03:39:59;;;;;;;;;9.50;5.25;;;;;12.73;100.00;100618.44;5097174;27;45326;-74
2022/06/09 03:42:25;;;;;;;;;6.00;4.00;;;;;12.71;100.00;100621.97;5096836;27;45137;-74
2022/06/09 03:44:50;;;;;;;;;5.25;5.00;;;;;12.68;100.00;100622.13;5096694;27;51570;-74
2022/06/09 03:47:15;;;;;;;;;4.75;4.75;;;;;12.73;100.00;100636.91;5097092;27;45341;-74
2022/06/09 03:49:41;;;;;;;;;5.75;4.25;;;;;12.71;100.00;100635.16;5096798;27;45148;-74
2022/06/09 03:52:07;;;;;;;;;8.50;4.25;;;;;12.73;100.00;100635.09;5097370;27;45286;-74
2022/06/09 03:54:32;;;;;;;;;7.00;6.00;;;;;12.73;100.00;100639.56;5096834;27;45289;-74
2022/06/09 03:56:58;;;;;;;;;6.75;5.00;;;;;12.71;100.00;100642.25;5096574;27;45345;-74
2022/06/09 03:59:23;;;;;;;;;4.00;4.00;;;;;12.76;100.00;100645.53;5096777;27;45291;-74
2022/06/09 04:01:49;;;;;;;;;4.25;3.25;;;;;12.74;100.00;100646.53;5095722;27;45569;-74
2022/06/09 04:04:14;;;;;;;;;7.25;5.00;;;;;12.74;100.00;100652.66;5095223;27;46294;-74
2022/06/09 04:06:40;;;;;;;;;8.25;5.25;;;;;12.79;100.00;100661.22;5096506;27;45718;-74
2022/06/09 04:09:06;;;;;;;;;7.75;5.50;;;;;12.76;100.00;100656.06;5096759;27;45242;-74
2022/06/09 04:11:32;;;;;;;;;9.00;4.00;;;;;12.80;100.00;100657.63;5096711;27;45777;-74
2022/06/09 04:13:58;;;;;;;;;9.50;5.75;;;;;12.82;100.00;100658.41;5096228;27;46592;-74
2022/06/09 04:16:38;;;;;;;;;8.50;4.00;;;;;12.79;100.00;100652.44;5096233;27;45386;-74
2022/06/09 04:19:07;;;;;;;;;6.00;6.00;;;;;12.84;100.00;100668.91;5096583;27;45193;-74
2022/06/09 04:21:34;;;;;;;;;7.00;4.25;;;;;12.85;100.00;100670.63;5095032;27;45575;-74
2022/06/09 04:24:00;;;;;;;;;7.00;5.50;;;;;12.86;100.00;100669.69;5096005;27;46394;-74
2022/06/09 04:26:29;;;;;;;;;4.00;4.00;;;;;12.90;100.00;100679.19;5096178;27;45418;-73
2022/06/09 04:28:55;;;;;;;;;4.50;4.00;;;;;12.91;100.00;100675.59;5096390;27;45343;-75
2022/06/09 04:31:21;;;;;;;;;9.50;5.00;;;;;12.95;100.00;100686.88;5096564;27;45496;-74
2022/06/09 04:33:48;;;;;;;;;8.00;5.75;;;;;12.97;100.00;100685.88;5096022;27;46412;-75
2022/06/09 04:36:15;;;;;;;;;6.25;5.00;;;;;12.98;100.00;100687.59;5094651;27;45408;-74
2022/06/09 04:38:40;;;;;;;;;6.00;4.75;;;;;13.00;100.00;100701.56;5096395;27;45232;-74
2022/06/09 04:41:09;;;;;;;;;11.75;6.00;;;;;13.04;100.00;100704.06;5096466;27;45220;-74
2022/06/09 04:43:36;;;;;;;;;9.50;5.75;;;;;12.95;100.00;100687.72;5094628;27;47485;-74
2022/06/09 04:46:01;;;;;;;;;5.00;5.00;;;;;13.13;100.00;100701.81;5096083;27;45368;-76
2022/06/09 04:48:26;;;;;;;;;9.00;5.25;;;;;13.15;100.00;100707.03;5095814;27;45402;-74
2022/06/09 04:50:52;;;;;;;;;5.00;3.75;;;;;13.21;100.00;100709.38;5094572;27;45722;-74
2022/06/09 04:53:17;;;;;;;;;6.25;6.00;;;;;13.26;100.00;100709.16;5095675;27;46179;-74
2022/06/09 04:55:43;;;;;;;;;7.25;5.00;;;;;13.33;100.00;100707.91;5095704;27;45546;-74
2022/06/09 04:58:09;;;;;;;;;9.50;5.00;;;;;13.61;100.00;100732.09;5095273;27;45350;-74
2022/06/09 05:00:35;;;;;;;;;5.75;4.00;;;;;13.87;100.00;100728.16;5095913;27;45194;-73
2022/06/09 05:03:01;;;;;;;;;5.00;4.75;;;;;14.17;100.00;100727.47;5095590;27;45310;-74
2022/06/09 05:05:32;;;;;;;;;8.50;5.75;;;;;14.49;100.00;100724.91;5095461;27;45261;-73
2022/06/09 05:07:58;;;;;;;;;5.25;4.25;;;;;14.70;98.79;100722.88;5095713;27;45898;-73
2022/06/09 05:10:23;;;;;;;;;6.25;4.00;;;;;14.93;98.46;100735.78;5093934;27;45376;-74
2022/06/09 05:12:48;;;;;;;;;6.25;5.00;;;;;15.15;97.74;100728.34;5094936;27;45488;-74
2022/06/09 05:15:16;;;;;;;;;6.00;6.00;;;;;15.31;97.12;100728.31;5095547;27;45363;-73
2022/06/09 05:17:42;;;;;;;;;7.00;5.75;;;;;15.59;96.20;100734.66;5095795;27;45334;-73
2022/06/09 05:20:10;;;;;;;;;5.00;5.00;;;;;15.83;96.57;100741.25;5095738;27;45579;-74
2022/06/09 05:22:36;;;;;;;;;6.50;5.00;;;;;15.99;95.88;100734.09;5094883;27;46649;-74
2022/06/09 05:25:01;;;;;;;;;7.00;4.75;;;;;16.21;95.46;100746.06;5095207;27;45357;-74
2022/06/09 05:27:27;;;;;;;;;4.75;4.75;;;;;16.28;93.17;100751.84;5095430;27;45323;-74
2022/06/09 05:29:52;;;;;;;;;10.75;5.00;;;;;16.24;90.68;100753.00;5093990;27;45628;-72
2022/06/09 05:32:17;;;;;;;;;5.00;4.25;;;;;16.24;92.45;100755.66;5094972;27;45263;-73
2022/06/09 05:34:43;;;;;;;;;7.25;4.00;;;;;16.14;93.42;100748.25;5093900;27;45340;-74
2022/06/09 05:37:08;;;;;;;;;5.75;4.25;;;;;16.25;93.62;100757.34;5095316;27;45412;-73
2022/06/09 05:45:04;;;;;;;;;2.50;2.50;;;;;16.32;91.10;100772.78;5095151;27;45465;-74
2022/06/09 05:47:30;;;;;;;;;6.00;3.25;;;;;16.31;92.04;100771.09;5094987;27;45409;-74
2022/06/09 05:49:55;;;;;;;;;6.25;4.50;;;;;16.37;92.86;100777.84;5095297;27;45551;-74
2022/06/09 05:52:25;;;;;;;;;5.25;5.00;;;;;16.38;93.50;100774.22;5094979;27;45527;-73
2022/06/09 05:54:52;;;;;;;;;4.00;4.00;;;;;16.36;90.66;100784.94;5094969;27;45308;-74
2022/06/09 05:57:19;;;;;;;;;6.50;4.25;;;;;16.22;90.46;100782.25;5093314;27;45373;-73
2022/06/09 05:59:44;;;;;;;;;6.00;4.00;;;;;16.12;92.79;100784.63;5095456;27;45610;-73
2022/06/09 06:02:10;;;;;;;;;6.75;5.00;;;;;16.00;91.94;100785.38;5094621;27;45981;-74
2022/06/09 06:04:36;;;;;;;;;13.25;9.00;;;;;15.94;93.23;100785.75;5094812;27;45300;-74
2022/06/09 06:07:01;;;;;;;;;7.50;4.00;;;;;15.87;93.58;100798.47;5095251;27;45358;-75
2022/06/09 06:09:27;;;;;;;;;4.50;4.00;;;;;15.75;93.98;100779.69;5095012;27;45564;-73
2022/06/09 06:11:53;;;;;;;;;5.25;3.50;;;;;15.85;95.34;100798.56;5093375;27;47011;-75
2022/06/09 06:14:20;;;;;;;;;6.50;4.25;;;;;15.80;91.28;100795.31;5094932;27;45253;-74
2022/06/09 06:16:46;;;;;;;;;5.00;5.00;;;;;15.80;93.77;100799.78;5095208;27;45453;-75
2022/06/09 06:19:14;;;;;;;;;8.50;6.00;;;;;15.78;94.33;100805.16;5093932;27;45562;-73
2022/06/09 06:21:41;;;;;;;;;6.00;5.00;;;;;15.81;93.77;100804.97;5094724;27;46362;-75
2022/06/09 06:24:07;;;;;;;;;7.50;5.25;;;;;15.85;93.24;100808.31;5095489;27;45315;-74
2022/06/09 06:26:33;;;;;;;;;8.25;7.25;;;;;15.94;95.65;100812.28;5098318;27;45262;-75
2022/06/09 06:29:00;;;;;;;;;7.50;5.75;;;;;16.07;94.64;100807.94;5097962;27;45470;-77
2022/06/09 06:31:25;;;;;;;;;9.75;5.00;;;;;16.15;92.10;100810.13;5096209;27;46420;-75
2022/06/09 06:33:51;;;;;;;;;6.25;5.00;;;;;16.14;92.32;100822.56;5098053;27;45347;-74
2022/06/09 06:36:17;;;;;;;;;8.00;5.50;;;;;16.28;92.88;100820.88;5098604;27;45464;-74
2022/06/09 06:38:42;;;;;;;;;9.00;6.50;;;;;16.46;91.21;100824.22;5098615;27;45301;-75
2022/06/09 06:41:10;;;;;;;;;7.25;5.50;;;;;16.46;91.83;100816.25;5098045;27;46528;-77
2022/06/09 06:43:37;;;;;;;;;6.00;5.50;;;;;16.57;91.94;100821.75;5096295;27;45281;-77
2022/06/09 06:46:03;;;;;;;;;5.25;5.00;;;;;16.48;88.11;100815.19;5097514;27;45343;-76
2022/06/09 06:48:29;;;;;;;;;5.75;5.75;;;;;16.53;90.53;100832.63;5097476;27;45479;-75
2022/06/09 06:50:55;;;;;;;;;7.25;6.00;;;;;16.43;86.99;100835.00;5095813;27;48029;-76
2022/06/09 06:53:20;;;;;;;;;5.00;5.00;;;;;16.39;90.35;100829.03;5097083;27;45380;-74
2022/06/09 06:55:46;;;;;;;;;14.75;8.75;;;;;16.32;91.70;100833.00;5096297;27;45351;-75
2022/06/09 06:58:11;;;;;;;;;7.00;7.00;;;;;16.27;91.99;100832.44;5097803;27;45509;-75
2022/06/09 07:00:37;;;;;;;;;9.00;5.25;;;;;16.26;91.73;100839.53;5097116;27;46527;-75
2022/06/09 07:03:04;;;;;;;;;6.00;6.00;;;;;16.24;91.28;100846.72;5096093;27;45365;-74
2022/06/09 07:05:30;;;;;;;;;6.25;6.25;;;;;16.23;91.33;100849.50;5097045;27;45264;-75
2022/06/09 07:07:56;;;;;;;;;8.75;6.50;;;;;16.28;89.66;100848.25;5097257;27;45241;-75
2022/06/09 07:10:22;;;;;;;;;13.50;7.00;;;;;16.23;88.50;100857.44;5095339;27;45520;-75
2022/06/09 07:12:48;;;;;;;;;9.50;7.00;;;;;16.18;90.53;100855.06;5097572;27;45242;-75
2022/06/09 07:15:15;;;;;;;;;8.25;5.25;;;;;16.21;89.74;100863.69;5095929;27;45376;-74
2022/06/09 07:17:41;;;;;;;;;9.25;8.00;;;;;16.26;90.55;100865.22;5095888;27;45437;-75
2022/06/09 07:20:09;;;;;;;;;8.25;8.00;;;;;16.25;88.58;100871.47;5096995;27;45881;-75
2022/06/09 07:22:34;;;;;;;;;7.25;6.00;;;;;16.21;88.09;100871.66;5095189;27;45804;-74
2022/06/09 07:25:00;;;;;;;;;7.00;6.75;;;;;16.24;89.71;100875.91;5097003;27;45594;-74
2022/06/09 07:27:25;;;;;;;;;8.00;7.25;;;;;16.23;84.70;100881.34;5095617;27;45254;-75
2022/06/09 07:29:51;;;;;;;;;5.00;5.00;;;;;16.25;88.52;100890.91;5097038;27;46228;-74
2022/06/09 07:32:17;;;;;;;;;8.25;6.75;;;;;16.29;88.15;100883.63;5097285;27;45168;-76
2022/06/09 07:34:43;;;;;;;;;6.00;6.00;;;;;16.35;88.42;100881.44;5096659;27;45397;-74
2022/06/09 07:37:09;;;;;;;;;8.25;6.00;;;;;16.42;89.33;100876.63;5096650;27;45301;-75
2022/06/09 07:39:34;;;;;;;;;6.00;6.00;;;;;16.54;88.78;100877.72;5096439;27;46370;-75
2022/06/09 07:42:00;;;;;;;;;10.25;8.50;;;;;16.67;88.40;100888.41;5096553;27;45347;-76
2022/06/09 07:44:26;;;;;;;;;7.25;7.25;;;;;16.75;86.57;100907.41;5096499;27;45468;-75
2022/06/09 07:46:51;;;;;;;;;6.50;5.00;;;;;16.72;86.43;100891.66;5096669;27;45553;-74
2022/06/09 07:49:17;;;;;;;;;7.50;7.00;;;;;16.79;87.35;100887.66;5096567;27;46316;-76
2022/06/09 07:51:43;;;;;;;;;8.75;6.50;;;;;17.01;86.47;100902.34;5096180;27;45351;-75
2022/06/09 07:54:09;;;;;;;;;10.00;7.50;;;;;16.95;82.59;100902.66;5096199;27;45316;-73
2022/06/09 07:56:34;;;;;;;;;5.25;5.25;;;;;16.89;81.96;100911.00;5096376;27;45548;-74
2022/06/09 07:59:02;;;;;;;;;9.50;7.25;;;;;16.82;83.22;100907.88;5095957;27;45374;-75
2022/06/09 08:01:28;;;;;;;;;7.50;5.25;;;;;16.85;85.04;100899.72;5095864;27;45214;-74
2022/06/09 08:03:54;;;;;;;;;10.00;8.00;;;;;16.96;85.95;100904.34;5096221;27;45226;-75
2022/06/09 08:06:21;;;;;;;;;5.25;5.25;;;;;17.04;84.18;100906.59;5096770;27;45528;-75
2022/06/09 08:08:47;;;;;;;;;7.75;6.00;;;;;17.10;83.79;100905.38;5096358;27;45432;-75
2022/06/09 08:11:12;;;;;;;;;7.50;7.50;;;;;17.20;84.71;100907.31;5094238;27;45618;-75
2022/06/09 08:13:38;;;;;;;;;9.25;6.25;;;;;17.23;80.92;100901.81;5096296;27;45359;-75
2022/06/09 08:16:04;;;;;;;;;10.00;6.00;;;;;17.23;81.92;100915.09;5096570;27;45451;-74
2022/06/09 08:18:30;;;;;;;;;7.00;5.75;;;;;17.25;83.58;100920.34;5094705;27;47275;-75
2022/06/09 08:20:55;;;;;;;;;6.00;6.00;;;;;17.28;79.72;100921.94;5095902;27;45379;-76
2022/06/09 08:23:24;;;;;;;;;5.50;5.50;;;;;17.32;81.01;100924.31;5096387;27;45175;-74
2022/06/09 08:25:54;;;;;;;;;11.00;7.00;;;;;17.39;82.36;100919.44;5096303;27;45326;-75
2022/06/09 08:28:20;;;;;;;;;8.00;6.75;;;;;17.42;81.03;100923.72;5094352;27;47040;-73
2022/06/09 08:30:49;;;;;;;;;6.25;4.75;;;;;17.52;77.37;100936.34;5095884;27;45482;-75
2022/06/09 08:33:14;;;;;;;;;8.00;6.75;;;;;17.56;78.13;100939.66;5096054;27;45370;-74
2022/06/09 08:35:40;;;;;;;;;9.00;7.25;;;;;17.63;79.28;100940.97;5095981;27;45344;-75
2022/06/09 08:38:07;;;;;;;;;8.50;7.00;;;;;17.73;77.79;100945.69;5095879;27;45522;-74
2022/06/09 08:40:44;;;;;;;;;8.25;8.00;;;;;17.78;78.12;100941.81;5095563;27;45393;-75
2022/06/09 08:43:24;;;;;;;;;7.00;5.00;;;;;17.95;79.63;100943.34;5095355;27;45370;-74
2022/06/09 08:45:55;;;;;;;;;9.75;9.50;;;;;18.24;79.74;100950.38;5094748;27;45627;-74
2022/06/09 08:48:25;;;;;;;;;9.50;8.25;;;;;18.43;76.87;100941.16;5094074;27;47249;-76
2022/06/09 08:51:02;;;;;;;;;5.75;5.75;;;;;18.38;73.32;100949.47;5094488;27;45375;-75
2022/06/09 08:53:40;;;;;;;;;8.00;6.00;;;;;18.17;75.90;100936.66;5093902;27;45390;-75
2022/06/09 08:56:26;;;;;;;;;10.50;9.00;;;;;18.17;78.39;100936.66;5095707;27;45239;-75
2022/06/09 08:58:59;;;;;;;;;13.75;12.50;;;;;18.19;75.91;100937.41;5095556;27;45317;-75
2022/06/09 09:01:35;;;;;;;;;8.50;2.50;;;;;18.34;74.65;100932.00;5095712;27;45331;-76
2022/06/09 09:04:13;;;;;;;;;5.50;5.25;;;;;18.46;73.56;100938.28;5095554;27;45313;-74
2022/06/09 09:07:10;;;;;;;;;7.50;5.25;;;;;18.63;75.18;100923.81;5094566;27;45455;-74
2022/06/09 09:09:37;;;;;;;;;6.75;5.00;;;;;18.72;72.02;100927.69;5093968;27;46499;-75
2022/06/09 09:12:14;;;;;;;;;7.75;5.00;;;;;18.90;72.13;100936.19;5095272;27;45261;-77
2022/06/09 09:14:47;;;;;;;;;7.00;4.75;;;;;18.94;68.74;100925.22;5095529;27;45804;-76
2022/06/09 09:17:21;;;;;;;;;5.50;5.50;;;;;18.98;74.00;100934.72;5095104;27;45248;-75
2022/06/09 09:20:04;;;;;;;;;4.00;4.00;;;;;19.02;72.97;100935.34;5095255;27;45409;-74
2022/06/09 09:22:40;;;;;;;;;9.50;5.00;;;;;19.02;70.87;100935.34;5095585;27;45325;-75
2022/06/09 09:25:11;;;;;;;;;9.00;6.00;;;;;19.09;71.80;100934.00;5095474;27;45385;-75
2022/06/09 09:27:54;;;;;;;;;8.00;5.75;;;;;19.18;73.06;100939.63;5095214;27;45304;-76
2022/06/09 09:30:21;;;;;;;;;7.75;4.75;;;;;19.11;68.94;100941.88;5094861;27;45493;-74
2022/06/09 09:32:50;;;;;;;;;5.50;4.75;;;;;19.06;71.03;100938.66;5094893;27;45392;-74
2022/06/09 09:35:30;;;;;;;;;5.25;5.25;;;;;19.16;72.05;100946.88;5095079;27;45336;-76
2022/06/09 09:37:58;;;;;;;;;12.00;10.25;;;;;19.31;71.35;100944.91;5095617;27;45881;-75
2022/06/09 09:40:32;;;;;;;;;5.25;4.50;;;;;19.56;71.11;100938.69;5095320;27;46285;-75
2022/06/09 09:43:03;;;;;;;;;8.50;5.00;;;;;19.88;71.49;100934.63;5094747;27;45372;-74
2022/06/09 09:45:52;;;;;;;;;11.00;7.25;;;;;20.18;69.17;100938.66;5094985;27;45310;-74
2022/06/09 09:48:17;;;;;;;;;10.50;9.50;;;;;20.23;68.65;100944.50;5095085;27;45977;-75
2022/06/09 09:50:51;;;;;;;;;7.75;7.75;;;;;20.27;69.96;100938.84;5094621;27;45481;-75
2022/06/09 09:53:19;;;;;;;;;6.50;6.50;;;;;20.42;70.51;100946.66;5093412;27;45472;-75
2022/06/09 09:56:23;;;;;;;;;8.25;5.00;;;;;20.66;69.13;100949.22;5094691;27;45353;-76
2022/06/09 09:58:49;;;;;;;;;5.75;5.00;;;;;20.97;67.12;100948.69;5095012;27;45177;-75
2022/06/09 10:01:14;;;;;;;;;8.50;5.75;;;;;21.07;68.54;100960.38;5097381;27;45607;-74
2022/06/09 10:10:09;;;;;;;;;9.00;7.25;;;;;21.34;66.64;100950.28;5098315;27;45359;-77
2022/06/09 10:12:35;;;;;;;;;8.50;7.00;;;;;21.31;66.36;100960.25;5097947;27;45538;-77
2022/06/09 10:15:09;;;;;;;;;7.00;4.50;;;;;21.44;65.88;100954.78;5097635;27;45325;-76
2022/06/09 10:18:13;;;;;;;;;5.00;5.00;;;;;21.61;63.36;100960.59;5097855;27;45337;-74
2022/06/09 10:21:00;;;;;;;;;4.00;4.00;;;;;21.66;63.99;100953.06;5098131;27;45225;-76
2022/06/09 10:23:49;;;;;;;;;11.75;7.75;;;;;21.82;64.30;100959.84;5098176;27;46240;-76
2022/06/09 10:26:21;;;;;;;;;4.50;4.00;;;;;21.91;62.60;100956.41;5098213;27;45366;-75
2022/06/09 10:28:52;;;;;;;;;7.50;5.00;;;;;21.95;63.96;100970.41;5097597;27;45403;-75
2022/06/09 10:31:31;;;;;;;;;6.00;4.25;;;;;21.91;64.45;100966.28;5097935;27;45436;-76
2022/06/09 10:34:17;;;;;;;;;7.50;7.50;;;;;21.82;63.56;100967.88;5097686;27;47584;-75
2022/06/09 10:37:15;;;;;;;;;4.75;4.75;;;;;21.71;63.16;100979.47;5097510;27;45263;-74
2022/06/09 10:39:53;;;;;;;;;7.25;5.75;;;;;21.59;60.82;100981.28;5097578;27;45419;-75
2022/06/09 10:42:57;;;;;;;;;6.00;3.00;;;;;21.45;63.82;100982.38;5096154;27;45223;-75
2022/06/09 10:45:28;;;;;;;;;8.00;8.00;;;;;21.45;63.43;100983.25;5084730;27;48032;-76
2022/06/09 10:57:09;;;;;;;;;5.00;3.50;;;;;22.04;62.93;100983.88;5097386;27;45353;-78
2022/06/09 10:59:39;;;;;;;;;6.75;5.25;;;;;21.96;60.67;100980.97;5097323;27;45256;-78
2022/06/09 11:02:14;;;;;;;;;4.50;4.00;;;;;21.98;61.68;100999.63;5095886;27;45560;-76
2022/06/09 11:04:41;;;;;;;;;5.00;3.25;;;;;21.99;60.18;100996.81;5095392;27;45480;-76
2022/06/09 11:07:35;;;;;;;;;4.00;4.00;;;;;22.09;60.20;101004.94;5096893;27;45354;-76
2022/06/09 11:10:36;;;;;;;;;4.00;3.50;;;;;21.96;61.23;100988.19;5094986;27;45479;-75
2022/06/09 11:13:41;;;;;;;;;7.00;3.25;;;;;22.32;60.91;100997.69;5089660;27;45296;-76
2022/06/09 11:16:20;;;;;;;;;5.00;2.00;;;;;22.54;61.31;101006.63;5096949;27;46225;-75
2022/06/09 11:19:36;;;;;;;;;4.75;4.75;;;;;22.65;59.49;100988.78;5096423;27;45397;-77
2022/06/09 11:22:13;;;;;;;;;1.00;1.00;;;;;22.80;57.17;101000.00;5017224;28;45328;-76
2022/06/09 11:25:02;;;;;;;;;3.25;2.25;;;;;22.91;58.06;101011.53;5088660;27;45384;-76
2022/06/09 11:27:57;;;;;;;;;4.50;2.00;;;;;22.90;58.24;101003.63;5077288;27;45380;-75
2022/06/09 11:30:31;;;;;;;;;3.50;2.75;;;;;22.94;59.38;100999.69;5094743;27;46777;-77
2022/06/09 11:33:13;;;;;;;;;1.00;0.25;;;;;22.89;54.21;100996.56;5096957;27;45278;-76
2022/06/09 11:35:51;;;;;;;;;3.50;3.00;;;;;22.71;57.10;101007.00;5096929;27;45334;-76
2022/06/09 11:38:41;;;;;;;;;5.00;3.50;;;;;22.62;56.95;100997.91;5096564;27;45383;-76
2022/06/09 11:41:22;;;;;;;;;3.75;3.75;;;;;22.84;58.35;101002.31;5094732;27;46279;-76
2022/06/09 11:43:53;;;;;;;;;4.00;4.00;;;;;23.08;57.62;101003.84;5096379;27;45516;-76
2022/06/09 11:46:30;;;;;;;;;4.00;4.00;;;;;23.31;58.16;101004.56;5096087;27;45270;-76
2022/06/09 11:49:00;;;;;;;;;4.00;2.00;;;;;23.44;57.73;101011.53;5096677;27;45317;-75
2022/06/09 11:51:28;;;;;;;;;2.00;2.00;;;;;23.57;56.23;101012.13;5096143;27;46772;-75
2022/06/09 11:54:02;;;;;;;;;4.25;2.50;;;;;23.56;51.37;101012.28;5096345;27;45343;-76
2022/06/09 11:56:36;;;;;;;;;5.00;3.00;;;;;23.49;55.06;101012.84;5097370;27;45426;-76
2022/06/09 11:59:17;;;;;;;;;3.00;1.00;;;;;23.53;49.84;101013.38;5097997;27;45389;-76